sensor_id;sensor_type;location;lat;lon;timestamp;temperature;humidity
3232;DHT22;1628;48.884;9.210;2022-11-04T00:01:22;11.40;99.90
3232;DHT22;1628;48.884;9.210;2022-11-04T00:03:51;11.40;99.90
3232;DHT22;1628;48.884;9.210;2022-11-04T00:06:18;11.40;99.90
3232;DHT22;1628;48.884;9.210;2022-11-04T00:08:47;11.40;99.90
3232;DHT22;1628;48.884;9.210;2022-11-04T00:11:14;11.40;99.90
3232;DHT22;1628;48.884;9.210;2022-11-04T00:13:58;11.30;99.90
3232;DHT22;1628;48.884;9.210;2022-11-04T00:16:25;11.30;99.90
3232;DHT22;1628;48.884;9.210;2022-11-04T00:19:10;11.30;99.90
3232;DHT22;1628;48.884;9.210;2022-11-04T00:21:37;11.20;99.90
3232;DHT22;1628;48.884;9.210;2022-11-04T00:24:21;11.20;99.90
3232;DHT22;1628;48.884;9.210;2022-11-04T00:27:07;11.20;99.90
3232;DHT22;1628;48.884;9.210;2022-11-04T00:29:51;11.20;99.90
3232;DHT22;1628;48.884;9.210;2022-11-04T00:32:18;11.20;99.90
3232;DHT22;1628;48.884;9.210;2022-11-04T00:35:04;11.20;99.90
3232;DHT22;1628;48.884;9.210;2022-11-04T00:37:31;11.20;99.90
3232;DHT22;1628;48.884;9.210;2022-11-04T00:39:58;11.30;99.90
3232;DHT22;1628;48.884;9.210;2022-11-04T00:42:24;11.30;99.90
3232;DHT22;1628;48.884;9.210;2022-11-04T00:44:51;11.30;99.90
3232;DHT22;1628;48.884;9.210;2022-11-04T00:47:17;11.30;99.90
3232;DHT22;1628;48.884;9.210;2022-11-04T00:49:44;11.30;99.90
3232;DHT22;1628;48.884;9.210;2022-11-04T00:52:12;11.30;99.90
3232;DHT22;1628;48.884;9.210;2022-11-04T00:54:39;11.30;99.90
3232;DHT22;1628;48.884;9.210;2022-11-04T00:57:08;11.40;99.90
3232;DHT22;1628;48.884;9.210;2022-11-04T00:59:34;11.40;99.90
3232;DHT22;1628;48.884;9.210;2022-11-04T01:02:01;11.40;99.90
3232;DHT22;1628;48.884;9.210;2022-11-04T01:04:28;11.40;99.90
3232;DHT22;1628;48.884;9.210;2022-11-04T01:06:55;11.40;99.90
3232;DHT22;1628;48.884;9.210;2022-11-04T01:09:23;11.40;99.90
3232;DHT22;1628;48.884;9.210;2022-11-04T01:11:50;11.40;99.90
3232;DHT22;1628;48.884;9.210;2022-11-04T01:14:17;11.40;99.90
3232;DHT22;1628;48.884;9.210;2022-11-04T01:16:44;11.40;99.90
3232;DHT22;1628;48.884;9.210;2022-11-04T01:19:11;11.40;99.90
3232;DHT22;1628;48.884;9.210;2022-11-04T01:21:38;11.40;99.90
3232;DHT22;1628;48.884;9.210;2022-11-04T01:24:05;11.40;99.90
3232;DHT22;1628;48.884;9.210;2022-11-04T01:26:33;11.50;99.90
3232;DHT22;1628;48.884;9.210;2022-11-04T01:29:00;11.50;99.90
3232;DHT22;1628;48.884;9.210;2022-11-04T01:31:29;11.50;99.90
3232;DHT22;1628;48.884;9.210;2022-11-04T01:33:56;11.50;99.90
3232;DHT22;1628;48.884;9.210;2022-11-04T01:36:24;11.50;99.90
3232;DHT22;1628;48.884;9.210;2022-11-04T01:38:51;11.40;99.90
3232;DHT22;1628;48.884;9.210;2022-11-04T01:41:21;11.40;99.90
3232;DHT22;1628;48.884;9.210;2022-11-04T01:43:51;11.40;99.90
3232;DHT22;1628;48.884;9.210;2022-11-04T01:46:24;11.40;99.90
3232;DHT22;1628;48.884;9.210;2022-11-04T01:48:52;11.40;99.90
3232;DHT22;1628;48.884;9.210;2022-11-04T01:51:21;11.40;99.90
3232;DHT22;1628;48.884;9.210;2022-11-04T01:53:49;11.30;99.90
3232;DHT22;1628;48.884;9.210;2022-11-04T01:56:17;11.30;99.90
3232;DHT22;1628;48.884;9.210;2022-11-04T01:58:48;11.30;99.90
3232;DHT22;1628;48.884;9.210;2022-11-04T02:01:17;11.20;99.90
3232;DHT22;1628;48.884;9.210;2022-11-04T02:03:48;11.20;99.90
3232;DHT22;1628;48.884;9.210;2022-11-04T02:06:16;11.20;99.90
3232;DHT22;1628;48.884;9.210;2022-11-04T02:08:44;11.20;99.90
3232;DHT22;1628;48.884;9.210;2022-11-04T02:11:11;11.20;99.90
3232;DHT22;1628;48.884;9.210;2022-11-04T02:13:59;11.20;99.90
3232;DHT22;1628;48.884;9.210;2022-11-04T02:16:33;11.10;99.90
3232;DHT22;1628;48.884;9.210;2022-11-04T02:19:19;11.10;99.90
3232;DHT22;1628;48.884;9.210;2022-11-04T02:22:18;11.10;99.90
3232;DHT22;1628;48.884;9.210;2022-11-04T02:25:14;11.10;99.90
3232;DHT22;1628;48.884;9.210;2022-11-04T02:27:58;11.10;99.90
3232;DHT22;1628;48.884;9.210;2022-11-04T02:30:35;11.10;99.90
3232;DHT22;1628;48.884;9.210;2022-11-04T02:33:16;11.10;99.90
3232;DHT22;1628;48.884;9.210;2022-11-04T02:35:53;11.10;99.90
3232;DHT22;1628;48.884;9.210;2022-11-04T02:38:30;11.10;99.90
3232;DHT22;1628;48.884;9.210;2022-11-04T02:41:03;11.00;99.90
3232;DHT22;1628;48.884;9.210;2022-11-04T02:43:41;11.00;99.90
3232;DHT22;1628;48.884;9.210;2022-11-04T02:46:15;10.90;99.90
3232;DHT22;1628;48.884;9.210;2022-11-04T02:48:46;10.90;99.90
3232;DHT22;1628;48.884;9.210;2022-11-04T02:51:17;10.90;99.90
3232;DHT22;1628;48.884;9.210;2022-11-04T02:53:48;10.90;99.90
3232;DHT22;1628;48.884;9.210;2022-11-04T02:56:19;11.00;99.90
3232;DHT22;1628;48.884;9.210;2022-11-04T02:58:52;11.00;99.90
3232;DHT22;1628;48.884;9.210;2022-11-04T03:01:23;11.00;99.90
3232;DHT22;1628;48.884;9.210;2022-11-04T03:03:58;10.90;99.90
3232;DHT22;1628;48.884;9.210;2022-11-04T03:06:27;10.90;99.90
3232;DHT22;1628;48.884;9.210;2022-11-04T03:08:56;11.00;99.90
3232;DHT22;1628;48.884;9.210;2022-11-04T03:11:24;10.90;99.90
3232;DHT22;1628;48.884;9.210;2022-11-04T03:13:57;10.90;99.90
3232;DHT22;1628;48.884;9.210;2022-11-04T03:16:31;10.90;99.90
3232;DHT22;1628;48.884;9.210;2022-11-04T03:19:01;10.90;99.90
3232;DHT22;1628;48.884;9.210;2022-11-04T03:21:32;10.80;99.90
3232;DHT22;1628;48.884;9.210;2022-11-04T03:23:59;10.80;99.90
3232;DHT22;1628;48.884;9.210;2022-11-04T03:26:28;10.80;99.90
3232;DHT22;1628;48.884;9.210;2022-11-04T03:29:08;10.80;99.90
3232;DHT22;1628;48.884;9.210;2022-11-04T03:31:42;10.80;99.90
3232;DHT22;1628;48.884;9.210;2022-11-04T03:34:10;10.70;99.90
3232;DHT22;1628;48.884;9.210;2022-11-04T03:36:37;10.80;99.90
3232;DHT22;1628;48.884;9.210;2022-11-04T03:39:04;10.80;99.90
3232;DHT22;1628;48.884;9.210;2022-11-04T03:41:34;10.80;99.90
3232;DHT22;1628;48.884;9.210;2022-11-04T03:44:03;10.80;99.90
3232;DHT22;1628;48.884;9.210;2022-11-04T03:46:29;10.80;99.90
3232;DHT22;1628;48.884;9.210;2022-11-04T03:48:58;10.80;99.90
3232;DHT22;1628;48.884;9.210;2022-11-04T03:51:25;10.80;99.90
3232;DHT22;1628;48.884;9.210;2022-11-04T03:53:52;10.80;99.90
3232;DHT22;1628;48.884;9.210;2022-11-04T03:56:51;10.80;99.90
3232;DHT22;1628;48.884;9.210;2022-11-04T03:59:37;10.80;99.90
3232;DHT22;1628;48.884;9.210;2022-11-04T04:02:12;10.80;99.90
3232;DHT22;1628;48.884;9.210;2022-11-04T04:04:45;10.80;99.90
3232;DHT22;1628;48.884;9.210;2022-11-04T04:07:18;10.80;99.90
3232;DHT22;1628;48.884;9.210;2022-11-04T04:09:50;10.80;99.90
3232;DHT22;1628;48.884;9.210;2022-11-04T04:12:25;10.80;99.90
3232;DHT22;1628;48.884;9.210;2022-11-04T04:14:59;10.80;99.90
3232;DHT22;1628;48.884;9.210;2022-11-04T04:17:31;10.80;99.90
3232;DHT22;1628;48.884;9.210;2022-11-04T04:20:03;10.70;99.90
3232;DHT22;1628;48.884;9.210;2022-11-04T04:22:33;10.70;99.90
3232;DHT22;1628;48.884;9.210;2022-11-04T04:25:06;10.70;99.90
3232;DHT22;1628;48.884;9.210;2022-11-04T04:27:52;10.60;99.90
3232;DHT22;1628;48.884;9.210;2022-11-04T04:30:20;10.60;99.90
3232;DHT22;1628;48.884;9.210;2022-11-04T04:32:49;10.60;99.90
3232;DHT22;1628;48.884;9.210;2022-11-04T04:35:22;10.60;99.90
3232;DHT22;1628;48.884;9.210;2022-11-04T04:38:16;10.60;99.90
3232;DHT22;1628;48.884;9.210;2022-11-04T04:41:05;10.60;99.90
3232;DHT22;1628;48.884;9.210;2022-11-04T04:43:51;10.60;99.90
3232;DHT22;1628;48.884;9.210;2022-11-04T04:46:37;10.60;99.90
3232;DHT22;1628;48.884;9.210;2022-11-04T04:49:04;10.60;99.90
3232;DHT22;1628;48.884;9.210;2022-11-04T04:51:34;10.60;99.90
3232;DHT22;1628;48.884;9.210;2022-11-04T04:54:01;10.50;99.90
3232;DHT22;1628;48.884;9.210;2022-11-04T04:56:28;10.50;99.90
3232;DHT22;1628;48.884;9.210;2022-11-04T04:58:54;10.50;99.90
3232;DHT22;1628;48.884;9.210;2022-11-04T05:01:21;10.50;99.90
3232;DHT22;1628;48.884;9.210;2022-11-04T05:03:48;10.50;99.90
3232;DHT22;1628;48.884;9.210;2022-11-04T05:06:15;10.50;99.90
3232;DHT22;1628;48.884;9.210;2022-11-04T05:08:42;10.50;99.90
3232;DHT22;1628;48.884;9.210;2022-11-04T05:11:09;10.50;99.90
3232;DHT22;1628;48.884;9.210;2022-11-04T05:13:36;10.50;99.90
3232;DHT22;1628;48.884;9.210;2022-11-04T05:16:04;10.50;99.90
3232;DHT22;1628;48.884;9.210;2022-11-04T05:18:31;10.50;99.90
3232;DHT22;1628;48.884;9.210;2022-11-04T05:21:02;10.50;99.90
3232;DHT22;1628;48.884;9.210;2022-11-04T05:23:29;10.40;99.90
3232;DHT22;1628;48.884;9.210;2022-11-04T05:25:58;10.40;99.90
3232;DHT22;1628;48.884;9.210;2022-11-04T05:28:25;10.40;99.90
3232;DHT22;1628;48.884;9.210;2022-11-04T05:30:51;10.30;99.90
3232;DHT22;1628;48.884;9.210;2022-11-04T05:33:18;10.30;99.90
3232;DHT22;1628;48.884;9.210;2022-11-04T05:35:45;10.30;99.90
3232;DHT22;1628;48.884;9.210;2022-11-04T05:38:11;10.20;99.90
3232;DHT22;1628;48.884;9.210;2022-11-04T05:40:38;10.20;99.90
3232;DHT22;1628;48.884;9.210;2022-11-04T05:43:06;10.30;99.90
3232;DHT22;1628;48.884;9.210;2022-11-04T05:45:33;10.30;99.90
3232;DHT22;1628;48.884;9.210;2022-11-04T05:48:01;10.30;99.90
3232;DHT22;1628;48.884;9.210;2022-11-04T05:50:29;10.30;99.90
3232;DHT22;1628;48.884;9.210;2022-11-04T05:52:56;10.30;99.90
3232;DHT22;1628;48.884;9.210;2022-11-04T05:55:23;10.30;99.90
3232;DHT22;1628;48.884;9.210;2022-11-04T05:57:50;10.30;99.90
3232;DHT22;1628;48.884;9.210;2022-11-04T06:00:18;10.30;99.90
3232;DHT22;1628;48.884;9.210;2022-11-04T06:02:45;10.30;99.90
3232;DHT22;1628;48.884;9.210;2022-11-04T06:05:12;10.30;99.90
3232;DHT22;1628;48.884;9.210;2022-11-04T06:07:38;10.30;99.90
3232;DHT22;1628;48.884;9.210;2022-11-04T06:10:06;10.30;99.90
3232;DHT22;1628;48.884;9.210;2022-11-04T06:12:32;10.30;99.90
3232;DHT22;1628;48.884;9.210;2022-11-04T06:14:59;10.30;99.90
3232;DHT22;1628;48.884;9.210;2022-11-04T06:17:27;10.30;99.90
3232;DHT22;1628;48.884;9.210;2022-11-04T06:19:54;10.30;99.90
3232;DHT22;1628;48.884;9.210;2022-11-04T06:22:20;10.20;99.90
3232;DHT22;1628;48.884;9.210;2022-11-04T06:24:47;10.30;99.90
3232;DHT22;1628;48.884;9.210;2022-11-04T06:27:14;10.20;99.90
3232;DHT22;1628;48.884;9.210;2022-11-04T06:29:41;10.20;99.90
3232;DHT22;1628;48.884;9.210;2022-11-04T06:32:08;10.30;99.90
3232;DHT22;1628;48.884;9.210;2022-11-04T06:34:37;10.30;99.90
3232;DHT22;1628;48.884;9.210;2022-11-04T06:37:03;10.30;99.90
3232;DHT22;1628;48.884;9.210;2022-11-04T06:39:30;10.20;99.90
3232;DHT22;1628;48.884;9.210;2022-11-04T06:41:57;10.20;99.90
3232;DHT22;1628;48.884;9.210;2022-11-04T06:44:24;10.20;99.90
3232;DHT22;1628;48.884;9.210;2022-11-04T06:46:50;10.20;99.90
3232;DHT22;1628;48.884;9.210;2022-11-04T06:49:18;10.20;99.90
3232;DHT22;1628;48.884;9.210;2022-11-04T06:51:46;10.20;99.90
3232;DHT22;1628;48.884;9.210;2022-11-04T06:54:14;10.10;99.90
3232;DHT22;1628;48.884;9.210;2022-11-04T06:56:41;10.10;99.90
3232;DHT22;1628;48.884;9.210;2022-11-04T06:59:08;10.00;99.90
3232;DHT22;1628;48.884;9.210;2022-11-04T07:01:39;10.10;99.90
3232;DHT22;1628;48.884;9.210;2022-11-04T07:04:05;10.10;99.90
3232;DHT22;1628;48.884;9.210;2022-11-04T07:06:35;10.20;99.90
3232;DHT22;1628;48.884;9.210;2022-11-04T07:09:03;10.20;99.90
3232;DHT22;1628;48.884;9.210;2022-11-04T07:11:31;10.20;99.90
3232;DHT22;1628;48.884;9.210;2022-11-04T07:13:58;10.20;99.90
3232;DHT22;1628;48.884;9.210;2022-11-04T07:16:25;10.30;99.90
3232;DHT22;1628;48.884;9.210;2022-11-04T07:18:53;10.30;99.90
3232;DHT22;1628;48.884;9.210;2022-11-04T07:21:19;10.30;99.90
3232;DHT22;1628;48.884;9.210;2022-11-04T07:23:46;10.20;99.90
3232;DHT22;1628;48.884;9.210;2022-11-04T07:26:15;10.20;99.90
3232;DHT22;1628;48.884;9.210;2022-11-04T07:28:42;10.20;99.90
3232;DHT22;1628;48.884;9.210;2022-11-04T07:31:10;10.20;99.90
3232;DHT22;1628;48.884;9.210;2022-11-04T07:33:37;10.20;99.90
3232;DHT22;1628;48.884;9.210;2022-11-04T07:36:05;10.20;99.90
3232;DHT22;1628;48.884;9.210;2022-11-04T07:38:32;10.20;99.90
3232;DHT22;1628;48.884;9.210;2022-11-04T07:40:59;10.20;99.90
3232;DHT22;1628;48.884;9.210;2022-11-04T07:43:28;10.20;99.90
3232;DHT22;1628;48.884;9.210;2022-11-04T07:45:59;10.20;99.90
3232;DHT22;1628;48.884;9.210;2022-11-04T07:48:26;10.20;99.90
3232;DHT22;1628;48.884;9.210;2022-11-04T07:50:55;10.30;99.90
3232;DHT22;1628;48.884;9.210;2022-11-04T07:53:21;10.30;99.90
3232;DHT22;1628;48.884;9.210;2022-11-04T07:55:48;10.20;99.90
3232;DHT22;1628;48.884;9.210;2022-11-04T07:58:15;10.20;99.90
3232;DHT22;1628;48.884;9.210;2022-11-04T08:00:43;10.20;99.90
3232;DHT22;1628;48.884;9.210;2022-11-04T08:03:10;10.20;99.90
3232;DHT22;1628;48.884;9.210;2022-11-04T08:05:37;10.40;99.90
3232;DHT22;1628;48.884;9.210;2022-11-04T08:08:04;10.40;99.90
3232;DHT22;1628;48.884;9.210;2022-11-04T08:10:31;10.50;99.90
3232;DHT22;1628;48.884;9.210;2022-11-04T08:12:57;10.60;99.90
3232;DHT22;1628;48.884;9.210;2022-11-04T08:15:24;10.60;99.90
3232;DHT22;1628;48.884;9.210;2022-11-04T08:17:52;10.70;99.90
3232;DHT22;1628;48.884;9.210;2022-11-04T08:20:19;10.80;99.90
3232;DHT22;1628;48.884;9.210;2022-11-04T08:22:45;10.80;99.90
3232;DHT22;1628;48.884;9.210;2022-11-04T08:25:12;10.90;99.90
3232;DHT22;1628;48.884;9.210;2022-11-04T08:27:39;11.00;99.90
3232;DHT22;1628;48.884;9.210;2022-11-04T08:30:07;11.10;99.90
3232;DHT22;1628;48.884;9.210;2022-11-04T08:32:34;11.20;99.90
3232;DHT22;1628;48.884;9.210;2022-11-04T08:35:02;11.30;99.90
3232;DHT22;1628;48.884;9.210;2022-11-04T08:37:28;11.40;99.90
3232;DHT22;1628;48.884;9.210;2022-11-04T08:39:55;11.40;99.90
3232;DHT22;1628;48.884;9.210;2022-11-04T08:42:22;11.50;99.90
3232;DHT22;1628;48.884;9.210;2022-11-04T08:44:50;11.50;99.90
3232;DHT22;1628;48.884;9.210;2022-11-04T08:47:17;11.60;99.90
3232;DHT22;1628;48.884;9.210;2022-11-04T08:49:44;11.70;99.90
3232;DHT22;1628;48.884;9.210;2022-11-04T08:52:12;11.80;99.90
3232;DHT22;1628;48.884;9.210;2022-11-04T08:54:38;11.80;99.90
3232;DHT22;1628;48.884;9.210;2022-11-04T08:57:05;12.00;99.90
3232;DHT22;1628;48.884;9.210;2022-11-04T08:59:32;12.20;99.90
3232;DHT22;1628;48.884;9.210;2022-11-04T09:01:58;12.40;99.90
3232;DHT22;1628;48.884;9.210;2022-11-04T09:04:25;12.60;99.90
3232;DHT22;1628;48.884;9.210;2022-11-04T09:06:52;12.80;99.90
3232;DHT22;1628;48.884;9.210;2022-11-04T09:09:22;12.90;99.90
3232;DHT22;1628;48.884;9.210;2022-11-04T09:11:48;13.00;99.90
3232;DHT22;1628;48.884;9.210;2022-11-04T09:14:15;13.10;99.90
3232;DHT22;1628;48.884;9.210;2022-11-04T09:16:43;13.10;99.90
3232;DHT22;1628;48.884;9.210;2022-11-04T09:19:10;13.00;99.90
3232;DHT22;1628;48.884;9.210;2022-11-04T09:21:36;12.90;99.90
3232;DHT22;1628;48.884;9.210;2022-11-04T09:24:05;12.80;99.90
3232;DHT22;1628;48.884;9.210;2022-11-04T09:26:34;12.70;99.90
3232;DHT22;1628;48.884;9.210;2022-11-04T09:29:01;12.70;99.90
3232;DHT22;1628;48.884;9.210;2022-11-04T09:31:29;12.70;99.90
3232;DHT22;1628;48.884;9.210;2022-11-04T09:33:56;12.70;99.90
3232;DHT22;1628;48.884;9.210;2022-11-04T09:36:23;12.60;99.90
3232;DHT22;1628;48.884;9.210;2022-11-04T09:38:51;12.50;99.90
3232;DHT22;1628;48.884;9.210;2022-11-04T09:41:41;12.50;99.90
3232;DHT22;1628;48.884;9.210;2022-11-04T09:44:20;12.50;99.90
3232;DHT22;1628;48.884;9.210;2022-11-04T09:46:48;12.60;99.90
3232;DHT22;1628;48.884;9.210;2022-11-04T09:49:16;12.70;99.90
3232;DHT22;1628;48.884;9.210;2022-11-04T09:51:46;12.80;99.90
3232;DHT22;1628;48.884;9.210;2022-11-04T09:54:19;12.90;99.90
3232;DHT22;1628;48.884;9.210;2022-11-04T09:56:49;13.10;99.90
3232;DHT22;1628;48.884;9.210;2022-11-04T09:59:22;13.20;99.90
3232;DHT22;1628;48.884;9.210;2022-11-04T10:02:00;13.20;99.90
3232;DHT22;1628;48.884;9.210;2022-11-04T10:04:38;13.50;99.90
3232;DHT22;1628;48.884;9.210;2022-11-04T10:07:15;13.80;99.90
3232;DHT22;1628;48.884;9.210;2022-11-04T10:09:53;14.20;99.90
3232;DHT22;1628;48.884;9.210;2022-11-04T10:12:40;14.60;99.90
3232;DHT22;1628;48.884;9.210;2022-11-04T10:18:32;15.40;99.90
3232;DHT22;1628;48.884;9.210;2022-11-04T10:21:06;16.00;99.90
3232;DHT22;1628;48.884;9.210;2022-11-04T10:23:42;16.70;99.90
3232;DHT22;1628;48.884;9.210;2022-11-04T10:26:15;17.10;99.90
3232;DHT22;1628;48.884;9.210;2022-11-04T10:28:48;17.50;99.90
3232;DHT22;1628;48.884;9.210;2022-11-04T10:31:17;17.70;99.90
3232;DHT22;1628;48.884;9.210;2022-11-04T10:33:47;17.90;99.90
3232;DHT22;1628;48.884;9.210;2022-11-04T10:36:16;18.00;99.90
3232;DHT22;1628;48.884;9.210;2022-11-04T10:38:44;17.90;99.90
3232;DHT22;1628;48.884;9.210;2022-11-04T10:41:19;17.90;99.90
3232;DHT22;1628;48.884;9.210;2022-11-04T10:43:49;17.50;99.90
3232;DHT22;1628;48.884;9.210;2022-11-04T10:46:33;17.50;99.90
3232;DHT22;1628;48.884;9.210;2022-11-04T10:49:10;17.20;99.90
3232;DHT22;1628;48.884;9.210;2022-11-04T10:51:40;16.80;99.90
3232;DHT22;1628;48.884;9.210;2022-11-04T10:54:08;16.50;99.90
3232;DHT22;1628;48.884;9.210;2022-11-04T10:56:39;16.30;99.90
3232;DHT22;1628;48.884;9.210;2022-11-04T10:59:18;16.10;99.90
3232;DHT22;1628;48.884;9.210;2022-11-04T11:01:48;15.80;99.90
3232;DHT22;1628;48.884;9.210;2022-11-04T11:04:25;15.60;99.90
3232;DHT22;1628;48.884;9.210;2022-11-04T11:06:53;15.40;99.90
3232;DHT22;1628;48.884;9.210;2022-11-04T11:09:23;15.40;99.90
3232;DHT22;1628;48.884;9.210;2022-11-04T11:11:55;15.30;99.90
3232;DHT22;1628;48.884;9.210;2022-11-04T11:14:35;15.20;99.90
3232;DHT22;1628;48.884;9.210;2022-11-04T11:17:19;14.90;99.90
3232;DHT22;1628;48.884;9.210;2022-11-04T11:19:54;14.90;99.90
3232;DHT22;1628;48.884;9.210;2022-11-04T11:22:30;14.80;99.90
3232;DHT22;1628;48.884;9.210;2022-11-04T11:25:13;14.80;99.90
3232;DHT22;1628;48.884;9.210;2022-11-04T11:27:46;14.70;99.90
3232;DHT22;1628;48.884;9.210;2022-11-04T11:30:27;14.60;99.90
3232;DHT22;1628;48.884;9.210;2022-11-04T11:32:59;14.50;99.90
3232;DHT22;1628;48.884;9.210;2022-11-04T11:35:31;14.40;99.90
3232;DHT22;1628;48.884;9.210;2022-11-04T11:37:59;14.40;99.90
3232;DHT22;1628;48.884;9.210;2022-11-04T11:40:29;14.30;99.90
3232;DHT22;1628;48.884;9.210;2022-11-04T11:42:58;14.20;99.90
3232;DHT22;1628;48.884;9.210;2022-11-04T11:45:28;14.20;99.90
3232;DHT22;1628;48.884;9.210;2022-11-04T11:47:55;14.30;99.90
3232;DHT22;1628;48.884;9.210;2022-11-04T11:50:28;14.40;99.90
3232;DHT22;1628;48.884;9.210;2022-11-04T11:53:13;14.50;99.90
3232;DHT22;1628;48.884;9.210;2022-11-04T11:55:48;14.70;99.90
3232;DHT22;1628;48.884;9.210;2022-11-04T11:58:23;14.70;99.90
3232;DHT22;1628;48.884;9.210;2022-11-04T12:00:57;14.80;99.90
3232;DHT22;1628;48.884;9.210;2022-11-04T12:03:28;14.90;99.90
3232;DHT22;1628;48.884;9.210;2022-11-04T12:06:06;15.00;99.90
3232;DHT22;1628;48.884;9.210;2022-11-04T12:09:06;14.90;99.90
3232;DHT22;1628;48.884;9.210;2022-11-04T12:11:44;14.90;99.90
3232;DHT22;1628;48.884;9.210;2022-11-04T12:14:17;14.90;99.90
3232;DHT22;1628;48.884;9.210;2022-11-04T12:16:54;15.00;99.90
3232;DHT22;1628;48.884;9.210;2022-11-04T12:19:33;15.00;99.90
3232;DHT22;1628;48.884;9.210;2022-11-04T12:22:13;15.00;99.90
3232;DHT22;1628;48.884;9.210;2022-11-04T12:24:49;14.90;99.90
3232;DHT22;1628;48.884;9.210;2022-11-04T12:27:26;14.90;99.90
3232;DHT22;1628;48.884;9.210;2022-11-04T12:30:04;15.00;99.90
3232;DHT22;1628;48.884;9.210;2022-11-04T12:32:40;15.00;99.90
3232;DHT22;1628;48.884;9.210;2022-11-04T12:35:18;15.00;99.90
3232;DHT22;1628;48.884;9.210;2022-11-04T12:37:56;14.90;99.90
3232;DHT22;1628;48.884;9.210;2022-11-04T12:40:27;14.80;99.90
3232;DHT22;1628;48.884;9.210;2022-11-04T12:43:16;14.70;99.90
3232;DHT22;1628;48.884;9.210;2022-11-04T12:45:58;14.60;99.90
3232;DHT22;1628;48.884;9.210;2022-11-04T12:48:40;14.60;99.90
3232;DHT22;1628;48.884;9.210;2022-11-04T12:51:15;14.70;99.90
3232;DHT22;1628;48.884;9.210;2022-11-04T12:53:56;14.70;99.90
3232;DHT22;1628;48.884;9.210;2022-11-04T12:56:32;14.70;99.90
3232;DHT22;1628;48.884;9.210;2022-11-04T12:59:31;14.70;99.90
3232;DHT22;1628;48.884;9.210;2022-11-04T13:02:12;14.70;99.90
3232;DHT22;1628;48.884;9.210;2022-11-04T13:04:46;14.80;99.90
3232;DHT22;1628;48.884;9.210;2022-11-04T13:07:19;14.80;99.90
3232;DHT22;1628;48.884;9.210;2022-11-04T13:09:52;14.90;99.90
3232;DHT22;1628;48.884;9.210;2022-11-04T13:12:21;14.90;99.90
3232;DHT22;1628;48.884;9.210;2022-11-04T13:14:52;14.80;99.90
3232;DHT22;1628;48.884;9.210;2022-11-04T13:17:24;14.90;99.90
3232;DHT22;1628;48.884;9.210;2022-11-04T13:19:55;14.90;99.90
3232;DHT22;1628;48.884;9.210;2022-11-04T13:22:27;14.90;99.90
3232;DHT22;1628;48.884;9.210;2022-11-04T13:24:59;14.80;99.90
3232;DHT22;1628;48.884;9.210;2022-11-04T13:27:32;14.70;99.90
3232;DHT22;1628;48.884;9.210;2022-11-04T13:30:05;14.70;99.90
3232;DHT22;1628;48.884;9.210;2022-11-04T13:32:36;14.70;99.90
3232;DHT22;1628;48.884;9.210;2022-11-04T13:35:10;14.70;99.90
3232;DHT22;1628;48.884;9.210;2022-11-04T13:37:47;14.70;99.90
3232;DHT22;1628;48.884;9.210;2022-11-04T13:40:21;14.60;99.90
3232;DHT22;1628;48.884;9.210;2022-11-04T13:46:01;14.60;99.90
3232;DHT22;1628;48.884;9.210;2022-11-04T13:48:30;14.50;99.90
3232;DHT22;1628;48.884;9.210;2022-11-04T13:51:01;14.40;99.90
3232;DHT22;1628;48.884;9.210;2022-11-04T13:53:42;14.40;99.90
3232;DHT22;1628;48.884;9.210;2022-11-04T13:56:09;14.40;99.90
3232;DHT22;1628;48.884;9.210;2022-11-04T13:58:51;14.40;99.90
3232;DHT22;1628;48.884;9.210;2022-11-04T14:01:26;14.40;99.90
3232;DHT22;1628;48.884;9.210;2022-11-04T14:04:01;14.40;99.90
3232;DHT22;1628;48.884;9.210;2022-11-04T14:06:47;14.30;99.90
3232;DHT22;1628;48.884;9.210;2022-11-04T14:09:35;14.30;99.90
3232;DHT22;1628;48.884;9.210;2022-11-04T14:12:29;14.30;99.90
3232;DHT22;1628;48.884;9.210;2022-11-04T14:15:06;14.40;99.90
3232;DHT22;1628;48.884;9.210;2022-11-04T14:17:58;14.40;99.90
3232;DHT22;1628;48.884;9.210;2022-11-04T14:20:28;14.40;99.90
3232;DHT22;1628;48.884;9.210;2022-11-04T14:22:57;14.30;99.90
3232;DHT22;1628;48.884;9.210;2022-11-04T14:25:29;14.20;99.90
3232;DHT22;1628;48.884;9.210;2022-11-04T14:27:56;14.10;99.90
3232;DHT22;1628;48.884;9.210;2022-11-04T14:30:33;14.10;99.90
3232;DHT22;1628;48.884;9.210;2022-11-04T14:33:02;14.20;99.90
3232;DHT22;1628;48.884;9.210;2022-11-04T14:35:30;14.30;99.90
3232;DHT22;1628;48.884;9.210;2022-11-04T14:38:04;14.30;99.90
3232;DHT22;1628;48.884;9.210;2022-11-04T14:40:49;14.40;99.90
3232;DHT22;1628;48.884;9.210;2022-11-04T14:43:25;14.40;99.90
3232;DHT22;1628;48.884;9.210;2022-11-04T14:45:56;14.50;99.90
3232;DHT22;1628;48.884;9.210;2022-11-04T14:48:25;14.40;99.90
3232;DHT22;1628;48.884;9.210;2022-11-04T14:50:53;14.40;99.90
3232;DHT22;1628;48.884;9.210;2022-11-04T14:53:25;14.20;99.90
3232;DHT22;1628;48.884;9.210;2022-11-04T14:56:03;14.10;99.90
3232;DHT22;1628;48.884;9.210;2022-11-04T14:58:30;14.00;99.90
3232;DHT22;1628;48.884;9.210;2022-11-04T15:00:58;13.90;99.90
3232;DHT22;1628;48.884;9.210;2022-11-04T15:03:26;13.80;99.90
3232;DHT22;1628;48.884;9.210;2022-11-04T15:05:57;13.70;99.90
3232;DHT22;1628;48.884;9.210;2022-11-04T15:08:29;13.70;99.90
3232;DHT22;1628;48.884;9.210;2022-11-04T15:11:14;13.60;99.90
3232;DHT22;1628;48.884;9.210;2022-11-04T15:13:44;13.60;99.90
3232;DHT22;1628;48.884;9.210;2022-11-04T15:16:14;13.60;99.90
3232;DHT22;1628;48.884;9.210;2022-11-04T15:18:41;13.50;99.90
3232;DHT22;1628;48.884;9.210;2022-11-04T15:21:08;13.40;99.90
3232;DHT22;1628;48.884;9.210;2022-11-04T15:23:41;13.30;99.90
3232;DHT22;1628;48.884;9.210;2022-11-04T15:26:18;13.20;99.90
3232;DHT22;1628;48.884;9.210;2022-11-04T15:28:46;13.20;99.90
3232;DHT22;1628;48.884;9.210;2022-11-04T15:31:16;13.10;99.90
3232;DHT22;1628;48.884;9.210;2022-11-04T15:33:46;13.10;99.90
3232;DHT22;1628;48.884;9.210;2022-11-04T15:36:16;13.00;99.90
3232;DHT22;1628;48.884;9.210;2022-11-04T15:38:49;13.00;99.90
3232;DHT22;1628;48.884;9.210;2022-11-04T15:41:19;13.00;99.90
3232;DHT22;1628;48.884;9.210;2022-11-04T15:44:05;12.90;99.90
3232;DHT22;1628;48.884;9.210;2022-11-04T15:46:32;12.80;99.90
3232;DHT22;1628;48.884;9.210;2022-11-04T15:49:04;12.80;99.90
3232;DHT22;1628;48.884;9.210;2022-11-04T15:51:36;12.60;99.90
3232;DHT22;1628;48.884;9.210;2022-11-04T15:54:17;12.60;99.90
3232;DHT22;1628;48.884;9.210;2022-11-04T15:56:47;12.50;99.90
3232;DHT22;1628;48.884;9.210;2022-11-04T15:59:19;12.50;99.90
3232;DHT22;1628;48.884;9.210;2022-11-04T16:01:48;12.40;99.90
3232;DHT22;1628;48.884;9.210;2022-11-04T16:04:16;12.40;99.90
3232;DHT22;1628;48.884;9.210;2022-11-04T16:06:45;12.30;99.90
3232;DHT22;1628;48.884;9.210;2022-11-04T16:09:20;12.30;99.90
3232;DHT22;1628;48.884;9.210;2022-11-04T16:12:11;12.30;99.90
3232;DHT22;1628;48.884;9.210;2022-11-04T16:14:38;12.20;99.90
3232;DHT22;1628;48.884;9.210;2022-11-04T16:17:11;12.20;99.90
3232;DHT22;1628;48.884;9.210;2022-11-04T16:19:38;12.20;99.90
3232;DHT22;1628;48.884;9.210;2022-11-04T16:22:07;12.10;99.90
3232;DHT22;1628;48.884;9.210;2022-11-04T16:24:37;12.10;99.90
3232;DHT22;1628;48.884;9.210;2022-11-04T16:27:07;12.00;99.90
3232;DHT22;1628;48.884;9.210;2022-11-04T16:29:36;12.00;99.90
3232;DHT22;1628;48.884;9.210;2022-11-04T16:32:06;12.00;99.90
3232;DHT22;1628;48.884;9.210;2022-11-04T16:34:33;12.00;99.90
3232;DHT22;1628;48.884;9.210;2022-11-04T16:37:00;11.90;99.90